Erwinna, Pennsylvania
Current Conditions -  °F | °C
As of 10:20 AM on Wednesday 26 Nov 2014 (Local Time) from KDYL Reporting Station
Light Snow Light Snow  
Wind Chill: -4°   Ceiling: 400
Heat Index:   Visibility: 1mi
Dew Point:   Wind: 7mph
Humidity: 100%   Direction: 40°NE
Pressure: 30.07"   Gusts: NA
Location:  40.5°N, 75.07°W
Report Text: KDYL 261520Z AUTO 04006KT 1SM -SN BR VV004 00/00 A3007 RMK AO2 PRESFR P0000 T00000000
Loading
Personal Weather Stations






























Interactive Weather Map New forecast layout! Learn more

10-Day Weather Forecast

Advertisements
Track Severe Weather on mobile